createdAt,value
2023-03-25T00:01:14.998Z,1.60
2023-03-25T00:03:42.990Z,3.10
2023-03-25T00:06:11.250Z,2.50
2023-03-25T00:08:38.530Z,1.80
2023-03-25T00:11:06.493Z,1.60
2023-03-25T00:13:33.614Z,1.50
2023-03-25T00:16:01.346Z,1.60
2023-03-25T00:18:30.737Z,1.60
2023-03-25T00:20:57.629Z,1.80
2023-03-25T00:23:24.699Z,1.80
2023-03-25T00:25:51.779Z,1.65
2023-03-25T00:28:18.954Z,1.52
2023-03-25T00:30:46.465Z,1.70
2023-03-25T00:33:13.655Z,1.65
2023-03-25T00:35:41.280Z,1.60
2023-03-25T00:38:08.408Z,1.90
2023-03-25T00:40:35.824Z,1.80
2023-03-25T00:43:04.207Z,1.70
2023-03-25T00:45:31.421Z,1.85
2023-03-25T00:47:58.568Z,1.80
2023-03-25T00:50:25.839Z,2.03
2023-03-25T00:52:53.194Z,2.00
2023-03-25T00:55:20.478Z,2.10
2023-03-25T00:57:47.460Z,2.10
2023-03-25T01:00:17.209Z,1.95
2023-03-25T01:02:44.734Z,1.90
2023-03-25T01:05:12.419Z,2.47
2023-03-25T01:07:40.358Z,2.20
2023-03-25T01:10:08.402Z,2.13
2023-03-25T01:12:35.273Z,2.10
2023-03-25T01:15:02.212Z,2.28
2023-03-25T01:17:29.113Z,2.38
2023-03-25T01:19:56.024Z,2.15
2023-03-25T01:22:22.843Z,2.10
2023-03-25T01:24:49.686Z,2.20
2023-03-25T01:27:16.583Z,2.20
2023-03-25T01:29:43.432Z,2.20
2023-03-25T01:32:10.288Z,2.60
2023-03-25T01:34:37.128Z,2.50
2023-03-25T01:37:04.401Z,2.50
2023-03-25T01:39:31.280Z,2.40
2023-03-25T01:41:58.133Z,2.30
2023-03-25T01:44:24.944Z,2.65
2023-03-25T01:46:54.013Z,2.80
2023-03-25T01:49:26.810Z,2.50
2023-03-25T01:52:03.577Z,2.80
2023-03-25T01:54:31.079Z,2.72
2023-03-25T01:56:58.280Z,2.40
2023-03-25T01:59:28.562Z,2.60
2023-03-25T02:01:57.290Z,2.50
2023-03-25T02:04:47.371Z,2.50
2023-03-25T02:07:14.563Z,2.70
2023-03-25T02:09:41.557Z,2.42
2023-03-25T02:12:08.430Z,2.60
2023-03-25T02:14:37.322Z,2.38
2023-03-25T02:17:33.812Z,2.50
2023-03-25T02:20:22.098Z,2.28
2023-03-25T02:23:16.267Z,2.70
2023-03-25T02:26:12.143Z,2.60
2023-03-25T02:28:59.594Z,2.60
2023-03-25T02:32:09.768Z,2.30
2023-03-25T02:34:42.394Z,2.45
2023-03-25T02:37:23.417Z,2.50
2023-03-25T02:39:54.878Z,2.50
2023-03-25T02:42:28.402Z,2.72
2023-03-25T02:45:05.866Z,2.42
2023-03-25T02:47:36.805Z,2.40
2023-03-25T02:50:10.480Z,2.42
2023-03-25T02:52:46.317Z,2.50
2023-03-25T02:55:15.806Z,2.28
2023-03-25T02:57:46.364Z,2.50
2023-03-25T03:00:16.213Z,2.60
2023-03-25T03:02:53.569Z,2.40
2023-03-25T03:05:32.784Z,2.20
2023-03-25T03:08:21.037Z,2.00
2023-03-25T03:10:47.859Z,2.30
2023-03-25T03:13:40.818Z,2.42
2023-03-25T03:16:16.721Z,2.08
2023-03-25T03:19:17.754Z,2.33
2023-03-25T03:21:53.408Z,2.20
2023-03-25T03:24:32.124Z,2.20
2023-03-25T03:27:14.937Z,2.30
2023-03-25T03:30:01.916Z,2.40
2023-03-25T03:32:32.805Z,2.15
2023-03-25T03:35:06.439Z,2.30
2023-03-25T03:37:47.747Z,2.20
2023-03-25T03:40:18.702Z,2.50
2023-03-25T03:42:54.977Z,2.50
2023-03-25T03:45:49.827Z,2.20
2023-03-25T03:48:31.162Z,2.17
2023-03-25T03:51:05.945Z,2.30
2023-03-25T03:53:40.349Z,2.17
2023-03-25T03:56:14.294Z,2.80
2023-03-25T03:58:43.281Z,2.10
2023-03-25T04:01:35.074Z,2.40
2023-03-25T04:04:08.999Z,2.10
2023-03-25T04:06:43.362Z,2.47
2023-03-25T04:09:25.632Z,2.40
2023-03-25T04:11:59.411Z,2.40
2023-03-25T04:14:26.487Z,2.30
2023-03-25T04:16:54.649Z,2.50
2023-03-25T04:19:21.513Z,2.40
2023-03-25T04:21:48.518Z,2.50
2023-03-25T04:24:16.100Z,2.60
2023-03-25T04:26:43.640Z,2.90
2023-03-25T04:29:10.617Z,2.80
2023-03-25T04:31:37.566Z,2.50
2023-03-25T04:34:04.645Z,2.60
2023-03-25T04:36:31.804Z,3.08
2023-03-25T04:38:58.628Z,3.27
2023-03-25T04:41:25.688Z,3.55
2023-03-25T04:43:52.552Z,3.45
2023-03-25T04:46:19.897Z,3.30
2023-03-25T04:48:46.986Z,3.50
2023-03-25T04:51:15.185Z,3.55
2023-03-25T04:53:42.728Z,3.60
2023-03-25T04:56:13.648Z,3.33
2023-03-25T04:58:40.476Z,3.33
2023-03-25T05:01:07.772Z,3.10
2023-03-25T05:03:34.654Z,2.80
2023-03-25T05:06:01.496Z,3.20
2023-03-25T05:08:28.368Z,2.70
2023-03-25T05:10:55.710Z,3.10
2023-03-25T05:13:22.597Z,3.42
2023-03-25T05:15:49.609Z,3.10
2023-03-25T05:18:17.236Z,2.60
2023-03-25T05:20:46.430Z,2.60
2023-03-25T05:23:14.410Z,4.80
2023-03-25T05:25:42.611Z,2.60
2023-03-25T05:28:10.193Z,2.75
2023-03-25T05:30:38.766Z,2.38
2023-03-25T05:33:09.989Z,2.30
2023-03-25T05:35:39.947Z,2.10
2023-03-25T05:38:07.224Z,2.60
2023-03-25T05:40:34.762Z,2.50
2023-03-25T05:43:02.141Z,2.40
2023-03-25T05:45:29.351Z,2.40
2023-03-25T05:47:56.457Z,2.40
2023-03-25T05:50:23.458Z,3.97
2023-03-25T05:52:50.350Z,2.30
2023-03-25T05:55:20.636Z,2.10
2023-03-25T05:57:48.016Z,3.00
2023-03-25T06:00:17.319Z,2.92
2023-03-25T06:02:44.290Z,2.83
2023-03-25T06:05:13.254Z,2.50
2023-03-25T06:07:45.083Z,2.90
2023-03-25T06:10:16.372Z,2.65
2023-03-25T06:12:44.412Z,2.50
2023-03-25T06:15:12.775Z,2.97
2023-03-25T06:17:40.455Z,2.70
2023-03-25T06:20:12.277Z,2.80
2023-03-25T06:22:40.982Z,2.70
2023-03-25T06:25:08.195Z,2.80
2023-03-25T06:27:35.148Z,2.70
2023-03-25T06:30:02.678Z,2.78
2023-03-25T06:32:29.652Z,2.60
2023-03-25T06:34:56.515Z,2.80
2023-03-25T06:37:23.357Z,2.42
2023-03-25T06:39:50.227Z,2.20
2023-03-25T06:42:17.092Z,2.70
2023-03-25T06:44:43.934Z,2.70
2023-03-25T06:47:10.787Z,2.60
2023-03-25T06:49:37.700Z,2.35
2023-03-25T06:52:08.144Z,2.60
2023-03-25T06:54:35.048Z,2.67
2023-03-25T06:57:01.948Z,2.13
2023-03-25T06:59:28.845Z,2.43
2023-03-25T07:01:55.723Z,2.30
2023-03-25T07:04:22.791Z,2.10
2023-03-25T07:06:49.749Z,2.00
2023-03-25T07:09:16.597Z,2.30
2023-03-25T07:11:43.694Z,2.35
2023-03-25T07:14:10.569Z,1.98
2023-03-25T07:16:37.443Z,2.50
2023-03-25T07:19:04.380Z,2.40
2023-03-25T07:21:31.194Z,2.95
2023-03-25T07:23:58.103Z,2.42
2023-03-25T07:26:24.954Z,3.28
2023-03-25T07:28:51.813Z,1.95
2023-03-25T07:31:18.651Z,2.10
2023-03-25T07:33:45.576Z,2.17
2023-03-25T07:36:13.833Z,2.50
2023-03-25T07:38:41.049Z,2.20
2023-03-25T07:41:11.015Z,2.00
2023-03-25T07:43:38.403Z,2.10
2023-03-25T07:46:05.728Z,2.10
2023-03-25T07:48:32.920Z,2.50
2023-03-25T07:50:59.871Z,2.20
2023-03-25T07:53:26.692Z,2.53
2023-03-25T07:55:53.667Z,2.30
2023-03-25T07:58:20.594Z,2.80
2023-03-25T08:00:47.650Z,2.08
2023-03-25T08:03:15.729Z,1.80
2023-03-25T08:05:49.322Z,1.98
2023-03-25T08:08:16.381Z,2.00
2023-03-25T08:10:44.336Z,1.90
2023-03-25T08:13:11.567Z,1.90
2023-03-25T08:15:38.815Z,1.95
2023-03-25T08:18:06.201Z,1.55
2023-03-25T08:20:36.450Z,2.00
2023-03-25T08:23:03.616Z,2.00
2023-03-25T08:25:31.380Z,1.90
2023-03-25T08:27:58.539Z,2.03
2023-03-25T08:30:25.491Z,1.83
2023-03-25T08:32:52.544Z,2.38
2023-03-25T08:35:20.462Z,2.10
2023-03-25T08:37:48.101Z,1.63
2023-03-25T08:40:15.345Z,1.85
2023-03-25T08:42:42.217Z,1.90
2023-03-25T08:45:09.895Z,1.70
2023-03-25T08:47:36.832Z,1.80
2023-03-25T08:50:04.233Z,1.70
2023-03-25T08:52:31.541Z,1.90
2023-03-25T08:54:58.394Z,1.50
2023-03-25T08:57:25.301Z,1.50
2023-03-25T08:59:52.306Z,1.73
2023-03-25T09:02:19.203Z,1.73
2023-03-25T09:04:48.599Z,2.17
2023-03-25T09:07:15.499Z,1.92
2023-03-25T09:09:42.479Z,1.23
2023-03-25T09:12:09.433Z,1.10
2023-03-25T09:14:36.698Z,1.13
2023-03-25T09:17:03.982Z,1.50
2023-03-25T09:19:30.823Z,2.22
2023-03-25T09:21:57.663Z,1.40
2023-03-25T09:24:24.644Z,1.10
2023-03-25T09:26:51.482Z,1.30
2023-03-25T09:29:18.342Z,1.20
2023-03-25T09:31:45.188Z,1.47
2023-03-25T09:34:12.062Z,1.30
2023-03-25T09:36:39.421Z,1.50
2023-03-25T09:39:06.299Z,1.30
2023-03-25T09:42:01.266Z,1.40
2023-03-25T09:44:34.315Z,1.73
2023-03-25T09:47:03.227Z,1.90
2023-03-25T09:49:42.883Z,1.77
2023-03-25T09:52:18.392Z,1.52
2023-03-25T09:54:51.920Z,1.58
2023-03-25T09:57:25.884Z,3.97
2023-03-25T09:59:53.396Z,1.30
2023-03-25T10:02:23.436Z,1.20
2023-03-25T10:05:14.897Z,1.40
2023-03-25T10:07:56.364Z,1.30
2023-03-25T10:10:52.169Z,1.33
2023-03-25T10:13:38.495Z,3.72
2023-03-25T10:16:22.275Z,2.33
2023-03-25T10:19:17.351Z,1.40
2023-03-25T10:22:08.691Z,3.50
2023-03-25T10:24:54.056Z,1.40
2023-03-25T10:27:38.206Z,1.45
2023-03-25T10:30:14.197Z,1.30
2023-03-25T10:32:45.557Z,1.50
2023-03-25T10:35:26.277Z,1.20
2023-03-25T10:37:55.534Z,1.23
2023-03-25T10:40:31.427Z,1.45
2023-03-25T10:43:14.030Z,1.70
2023-03-25T10:45:42.673Z,1.30
2023-03-25T10:48:16.389Z,1.40
2023-03-25T10:50:44.118Z,1.50
2023-03-25T10:53:23.920Z,1.30
2023-03-25T10:56:06.137Z,1.30
2023-03-25T10:58:35.764Z,2.00
2023-03-25T11:01:13.735Z,1.00
2023-03-25T11:03:42.830Z,0.70
2023-03-25T11:06:24.309Z,0.90
2023-03-25T11:09:27.029Z,0.60
2023-03-25T11:11:54.335Z,0.60
2023-03-25T11:14:26.485Z,0.80
2023-03-25T11:17:04.830Z,0.68
2023-03-25T11:19:55.248Z,0.80
2023-03-25T11:22:36.285Z,2.53
2023-03-25T11:25:25.589Z,3.03
2023-03-25T11:27:58.191Z,0.90
2023-03-25T11:30:26.137Z,0.80
2023-03-25T11:33:02.573Z,0.80
2023-03-25T11:35:32.191Z,1.00
2023-03-25T11:38:01.362Z,1.43
2023-03-25T11:40:30.649Z,1.40
2023-03-25T11:43:00.562Z,1.00
2023-03-25T11:45:35.991Z,1.00
2023-03-25T11:48:18.135Z,1.53
2023-03-25T11:50:48.356Z,1.30
2023-03-25T11:53:17.100Z,1.30
2023-03-25T11:55:59.093Z,1.55
2023-03-25T11:58:32.739Z,1.10
2023-03-25T12:01:05.465Z,1.42
2023-03-25T12:03:34.436Z,1.70
2023-03-25T12:06:07.059Z,2.10
2023-03-25T12:08:42.757Z,1.20
2023-03-25T12:11:43.341Z,1.50
2023-03-25T12:14:29.649Z,1.50
2023-03-25T12:17:05.424Z,2.00
2023-03-25T12:19:44.291Z,1.50
2023-03-25T12:22:23.267Z,1.80
2023-03-25T12:25:02.061Z,1.65
2023-03-25T12:27:31.915Z,1.70
2023-03-25T12:30:21.432Z,2.17
2023-03-25T12:33:05.556Z,1.70
2023-03-25T12:35:47.893Z,1.87
2023-03-25T12:38:38.874Z,1.80
2023-03-25T12:41:26.737Z,2.10
2023-03-25T12:44:32.023Z,1.80
2023-03-25T12:47:42.231Z,2.00
2023-03-25T12:50:27.653Z,2.63
2023-03-25T12:53:19.167Z,1.60
2023-03-25T12:56:34.114Z,1.42
2023-03-25T12:59:19.749Z,1.45
2023-03-25T13:01:58.813Z,1.60
2023-03-25T13:05:00.783Z,1.65
2023-03-25T13:07:37.900Z,1.60
2023-03-25T13:10:25.024Z,1.70
2023-03-25T13:12:57.103Z,1.70
2023-03-25T13:15:36.629Z,1.30
2023-03-25T13:18:18.844Z,1.35
2023-03-25T13:21:00.532Z,1.10
2023-03-25T13:23:29.101Z,3.90
2023-03-25T13:26:03.155Z,1.00
2023-03-25T13:28:42.148Z,0.93
2023-03-25T13:31:14.416Z,0.80
2023-03-25T13:33:50.770Z,0.80
2023-03-25T13:36:32.084Z,1.27
2023-03-25T13:39:20.940Z,0.77
2023-03-25T13:41:56.985Z,2.70
2023-03-25T13:44:36.665Z,0.60
2023-03-25T13:47:29.616Z,0.70
2023-03-25T13:50:07.374Z,0.70
2023-03-25T13:52:42.665Z,0.88
2023-03-25T13:55:23.368Z,0.70
2023-03-25T13:58:10.483Z,0.60
2023-03-25T14:00:56.820Z,0.70
2023-03-25T14:03:54.230Z,0.70
2023-03-25T14:06:58.183Z,1.40
2023-03-25T14:09:48.026Z,0.80
2023-03-25T14:12:41.940Z,1.00
2023-03-25T14:15:20.324Z,1.60
2023-03-25T14:17:47.967Z,0.90
2023-03-25T14:20:26.095Z,0.85
2023-03-25T14:23:03.673Z,0.90
2023-03-25T14:25:42.308Z,1.00
2023-03-25T14:28:16.743Z,1.00
2023-03-25T14:30:44.076Z,1.10
2023-03-25T14:33:12.034Z,1.10
2023-03-25T14:35:49.384Z,1.10
2023-03-25T14:38:16.600Z,1.57
2023-03-25T14:41:02.095Z,1.33
2023-03-25T14:43:44.054Z,2.00
2023-03-25T14:46:11.335Z,4.57
2023-03-25T14:48:42.531Z,1.97
2023-03-25T14:51:27.896Z,1.35
2023-03-25T14:54:19.317Z,1.30
2023-03-25T14:56:54.733Z,1.15
2023-03-25T14:59:27.881Z,1.27
2023-03-25T15:02:00.703Z,1.13
2023-03-25T15:04:39.220Z,1.10
2023-03-25T15:07:12.473Z,1.00
2023-03-25T15:10:06.562Z,1.27
2023-03-25T15:12:38.597Z,1.08
2023-03-25T15:15:30.422Z,1.40
2023-03-25T15:18:00.133Z,1.40
2023-03-25T15:20:29.927Z,4.20
2023-03-25T15:23:18.622Z,1.40
2023-03-25T15:25:46.974Z,1.20
2023-03-25T15:28:23.056Z,1.25
2023-03-25T15:31:04.982Z,1.83
2023-03-25T15:33:56.759Z,2.67
2023-03-25T15:37:00.156Z,1.63
2023-03-25T15:39:42.057Z,1.50
2023-03-25T15:42:22.364Z,1.45
2023-03-25T15:45:12.502Z,1.40
2023-03-25T15:47:48.232Z,1.30
2023-03-25T15:50:50.250Z,1.58
2023-03-25T15:53:41.495Z,1.38
2023-03-25T15:56:14.490Z,1.55
2023-03-25T15:58:54.892Z,1.70
2023-03-25T16:01:29.967Z,1.60
2023-03-25T16:04:31.804Z,2.10
2023-03-25T16:07:01.011Z,1.98
2023-03-25T16:09:29.075Z,1.70
2023-03-25T16:12:00.640Z,2.80
2023-03-25T16:14:31.344Z,2.95
2023-03-25T16:17:01.052Z,1.52
2023-03-25T16:19:42.857Z,0.80
2023-03-25T16:22:17.696Z,0.90
2023-03-25T16:24:46.680Z,1.10
2023-03-25T16:27:21.895Z,1.00
2023-03-25T16:29:54.144Z,0.98
2023-03-25T16:32:23.862Z,0.90
2023-03-25T16:34:50.703Z,0.90
2023-03-25T16:37:18.015Z,1.48
2023-03-25T16:39:50.324Z,2.10
2023-03-25T16:42:19.905Z,1.10
2023-03-25T16:44:47.197Z,1.00
2023-03-25T16:47:16.080Z,3.95
2023-03-25T16:49:47.839Z,1.15
2023-03-25T16:52:24.121Z,1.00
2023-03-25T16:54:50.950Z,0.80
2023-03-25T16:57:23.351Z,0.80
2023-03-25T16:59:52.977Z,0.70
2023-03-25T17:02:32.043Z,1.80
2023-03-25T17:05:23.202Z,1.60
2023-03-25T17:08:05.599Z,1.35
2023-03-25T17:10:52.042Z,1.13
2023-03-25T17:13:36.482Z,0.70
2023-03-25T17:16:07.250Z,0.65
2023-03-25T17:18:36.784Z,0.70
2023-03-25T17:21:09.321Z,0.70
2023-03-25T17:23:40.919Z,0.70
2023-03-25T17:26:11.598Z,0.82
2023-03-25T17:28:56.108Z,0.70
2023-03-25T17:31:34.913Z,0.80
2023-03-25T17:34:11.059Z,0.60
2023-03-25T17:36:40.577Z,0.70
2023-03-25T17:39:26.442Z,0.80
2023-03-25T17:42:05.371Z,1.57
2023-03-25T17:44:35.324Z,1.80
2023-03-25T17:47:02.226Z,0.80
2023-03-25T17:49:32.741Z,0.80
2023-03-25T17:51:59.752Z,0.90
2023-03-25T17:54:26.876Z,1.00
2023-03-25T17:56:53.948Z,1.42
2023-03-25T17:59:23.887Z,1.10
2023-03-25T18:01:51.073Z,1.70
2023-03-25T18:04:19.632Z,1.27
2023-03-25T18:06:46.817Z,1.20
2023-03-25T18:09:22.443Z,1.10
2023-03-25T18:11:52.486Z,1.30
2023-03-25T18:14:23.424Z,11.70
2023-03-25T18:16:51.662Z,10.73
2023-03-25T18:19:21.506Z,3.33
2023-03-25T18:21:48.553Z,1.40
2023-03-25T18:24:15.673Z,1.40
2023-03-25T18:26:44.251Z,1.20
2023-03-25T18:29:17.832Z,1.23
2023-03-25T18:31:44.703Z,1.10
2023-03-25T18:34:12.404Z,1.30
2023-03-25T18:36:39.972Z,1.40
2023-03-25T18:39:06.927Z,1.40
2023-03-25T18:41:34.154Z,1.80
2023-03-25T18:44:01.014Z,1.20
2023-03-25T18:46:27.900Z,1.10
2023-03-25T18:48:54.745Z,1.60
2023-03-25T18:51:21.609Z,1.40
2023-03-25T18:53:48.554Z,0.90
2023-03-25T18:56:15.390Z,0.80
2023-03-25T18:58:42.266Z,0.70
2023-03-25T19:01:13.629Z,0.82
2023-03-25T19:03:40.657Z,0.70
2023-03-25T19:06:12.934Z,0.80
2023-03-25T19:08:41.109Z,1.23
2023-03-25T19:11:19.172Z,1.40
2023-03-25T19:13:48.302Z,1.50
2023-03-25T19:16:15.203Z,1.50
2023-03-25T19:18:42.304Z,1.48
2023-03-25T19:21:10.362Z,1.30
2023-03-25T19:23:37.230Z,1.20
2023-03-25T19:26:04.420Z,1.05
2023-03-25T19:28:31.346Z,3.47
2023-03-25T19:31:01.177Z,1.50
2023-03-25T19:33:28.668Z,0.90
2023-03-25T19:35:55.583Z,1.00
2023-03-25T19:38:22.614Z,1.00
2023-03-25T19:40:51.007Z,1.10
2023-03-25T19:43:18.547Z,1.10
2023-03-25T19:45:45.664Z,1.30
2023-03-25T19:48:12.744Z,3.00
2023-03-25T19:50:39.601Z,1.50
2023-03-25T19:53:06.610Z,1.67
2023-03-25T19:55:33.768Z,1.33
2023-03-25T19:58:00.638Z,1.70
2023-03-25T20:00:28.217Z,2.45
2023-03-25T20:02:58.939Z,1.70
2023-03-25T20:05:25.985Z,1.70
2023-03-25T20:07:52.878Z,2.20
2023-03-25T20:10:21.900Z,1.80
2023-03-25T20:12:50.150Z,1.40
2023-03-25T20:15:18.634Z,1.45
2023-03-25T20:17:47.800Z,1.50
2023-03-25T20:20:14.870Z,1.50
2023-03-25T20:22:42.123Z,1.50
2023-03-25T20:25:10.562Z,1.83
2023-03-25T20:27:38.259Z,1.43
2023-03-25T20:30:07.021Z,1.30
2023-03-25T20:32:41.390Z,1.30
2023-03-25T20:35:12.088Z,1.30
2023-03-25T20:37:39.067Z,1.40
2023-03-25T20:40:08.234Z,1.30
2023-03-25T20:42:35.084Z,1.50
2023-03-25T20:45:01.988Z,1.60
2023-03-25T20:47:28.899Z,1.60
2023-03-25T20:49:55.799Z,1.40
2023-03-25T20:52:22.717Z,1.40
2023-03-25T20:54:49.593Z,1.40
2023-03-25T20:57:16.525Z,1.23
2023-03-25T20:59:43.370Z,1.30
2023-03-25T21:02:11.040Z,1.63
2023-03-25T21:04:38.123Z,1.75
2023-03-25T21:07:05.344Z,2.20
2023-03-25T21:09:32.216Z,1.70
2023-03-25T21:11:59.065Z,2.00
2023-03-25T21:14:26.292Z,2.10
2023-03-25T21:16:53.158Z,1.77
2023-03-25T21:19:20.626Z,1.60
2023-03-25T21:21:47.437Z,1.60
2023-03-25T21:24:14.356Z,1.70
2023-03-25T21:26:41.191Z,2.00
2023-03-25T21:29:08.091Z,1.80
2023-03-25T21:31:35.019Z,2.08
2023-03-25T21:34:01.955Z,1.63
2023-03-25T21:36:29.601Z,2.20
2023-03-25T21:38:58.802Z,1.73
2023-03-25T21:41:27.221Z,2.20
2023-03-25T21:43:54.102Z,2.03
2023-03-25T21:46:21.886Z,1.90
2023-03-25T21:48:48.739Z,2.00
2023-03-25T21:51:15.605Z,2.15
2023-03-25T21:53:44.497Z,2.50
2023-03-25T21:56:14.492Z,2.10
2023-03-25T21:58:41.563Z,2.17
2023-03-25T22:01:17.820Z,2.03
2023-03-25T22:03:44.846Z,2.53
2023-03-25T22:06:17.321Z,2.20
2023-03-25T22:08:44.847Z,2.90
2023-03-25T22:11:17.402Z,5.03
2023-03-25T22:13:44.789Z,3.58
2023-03-25T22:16:13.755Z,2.92
2023-03-25T22:18:41.313Z,2.80
2023-03-25T22:21:09.389Z,2.90
2023-03-25T22:23:36.927Z,3.00
2023-03-25T22:26:04.846Z,3.20
2023-03-25T22:28:31.773Z,3.50
2023-03-25T22:30:58.655Z,3.80
2023-03-25T22:33:25.667Z,3.37
2023-03-25T22:35:53.066Z,3.30
2023-03-25T22:38:20.090Z,3.20
2023-03-25T22:40:47.075Z,3.30
2023-03-25T22:43:13.901Z,3.20
2023-03-25T22:45:40.748Z,3.10
2023-03-25T22:48:07.634Z,2.85
2023-03-25T22:50:35.042Z,2.80
2023-03-25T22:53:01.938Z,2.60
2023-03-25T22:55:28.803Z,2.50
2023-03-25T22:57:55.642Z,2.70
2023-03-25T23:00:26.424Z,3.20
2023-03-25T23:02:53.326Z,2.83
2023-03-25T23:05:20.356Z,2.60
2023-03-25T23:07:47.228Z,2.50
2023-03-25T23:10:14.102Z,2.80
2023-03-25T23:12:40.933Z,3.10
2023-03-25T23:15:08.261Z,3.22
2023-03-25T23:17:35.158Z,2.80
2023-03-25T23:20:02.069Z,2.60
2023-03-25T23:22:28.914Z,2.97
2023-03-25T23:24:56.999Z,2.40
2023-03-25T23:27:23.872Z,2.58
2023-03-25T23:29:50.723Z,3.20
2023-03-25T23:32:17.620Z,3.13
2023-03-25T23:34:44.473Z,2.90
2023-03-25T23:37:11.361Z,2.70
2023-03-25T23:39:38.180Z,2.67
2023-03-25T23:42:05.126Z,2.90
2023-03-25T23:44:32.024Z,3.10
2023-03-25T23:46:58.913Z,3.17
2023-03-25T23:49:25.885Z,3.30
2023-03-25T23:51:52.727Z,3.17
2023-03-25T23:54:19.859Z,3.30
2023-03-25T23:56:46.783Z,3.67
2023-03-25T23:59:13.724Z,3.10
